createdAt,value
2024-01-06T00:01:29.200Z,15.95
2024-01-06T00:04:18.262Z,21.38
2024-01-06T00:07:06.296Z,19.98
2024-01-06T00:09:54.935Z,17.75
2024-01-06T00:12:42.556Z,19.38
2024-01-06T00:15:30.294Z,17.73
2024-01-06T00:18:17.938Z,20.65
2024-01-06T00:21:07.078Z,17.15
2024-01-06T00:23:56.996Z,19.30
2024-01-06T00:26:45.236Z,20.88
2024-01-06T00:29:32.951Z,22.02
2024-01-06T00:32:20.869Z,21.65
2024-01-06T00:35:09.503Z,23.08
2024-01-06T00:37:58.604Z,19.65
2024-01-06T00:40:46.292Z,21.75
2024-01-06T00:43:33.765Z,19.02
2024-01-06T00:46:21.018Z,18.70
2024-01-06T00:49:08.562Z,18.48
2024-01-06T00:51:56.312Z,16.05
2024-01-06T00:54:48.349Z,18.48
2024-01-06T00:57:36.034Z,14.68
2024-01-06T01:00:23.804Z,15.85
2024-01-06T01:03:11.531Z,13.07
2024-01-06T01:05:59.240Z,16.17
2024-01-06T01:08:47.138Z,17.92
2024-01-06T01:11:36.417Z,19.27
2024-01-06T01:14:24.180Z,15.55
2024-01-06T01:17:11.664Z,14.10
2024-01-06T01:19:59.304Z,15.18
2024-01-06T01:22:46.644Z,13.80
2024-01-06T01:25:34.101Z,13.88
2024-01-06T01:28:23.029Z,11.98
2024-01-06T01:31:11.151Z,14.65
2024-01-06T01:34:02.473Z,14.45
2024-01-06T01:36:50.230Z,11.02
2024-01-06T01:39:37.891Z,12.13
2024-01-06T01:42:25.624Z,11.80
2024-01-06T01:45:14.653Z,13.88
2024-01-06T01:48:02.561Z,13.80
2024-01-06T01:50:50.649Z,19.67
2024-01-06T01:53:39.455Z,12.30
2024-01-06T01:56:28.386Z,13.82
2024-01-06T01:59:19.792Z,14.23
2024-01-06T02:02:09.872Z,14.10
2024-01-06T02:04:58.467Z,16.17
2024-01-06T02:07:46.501Z,15.82
2024-01-06T02:10:34.310Z,13.85
2024-01-06T02:13:21.705Z,12.52
2024-01-06T02:16:09.240Z,14.70
2024-01-06T02:18:59.490Z,11.50
2024-01-06T02:21:51.292Z,17.38
2024-01-06T02:24:38.884Z,15.45
2024-01-06T02:27:26.410Z,12.45
2024-01-06T02:30:14.367Z,12.95
2024-01-06T02:33:04.049Z,11.02
2024-01-06T02:35:53.730Z,12.02
2024-01-06T02:38:42.751Z,11.02
2024-01-06T02:41:30.577Z,11.63
2024-01-06T02:44:18.342Z,12.20
2024-01-06T02:47:06.508Z,12.40
2024-01-06T02:49:55.707Z,11.25
2024-01-06T02:52:43.649Z,12.45
2024-01-06T02:55:32.815Z,12.38
2024-01-06T02:58:20.533Z,10.63
2024-01-06T03:01:08.482Z,10.82
2024-01-06T03:03:56.440Z,13.18
2024-01-06T03:06:47.609Z,12.13
2024-01-06T03:09:35.134Z,10.32
2024-01-06T03:12:24.159Z,11.25
2024-01-06T03:15:12.545Z,12.55
2024-01-06T03:18:00.448Z,11.13
2024-01-06T03:20:48.305Z,10.63
2024-01-06T03:23:36.193Z,10.38
2024-01-06T03:26:23.745Z,10.80
2024-01-06T03:29:13.238Z,7.90
2024-01-06T03:32:01.040Z,9.18
2024-01-06T03:34:48.519Z,10.13
2024-01-06T03:37:36.352Z,10.82
2024-01-06T03:40:23.986Z,10.82
2024-01-06T03:43:11.363Z,10.95
2024-01-06T03:46:01.432Z,10.75
2024-01-06T03:48:49.226Z,10.98
2024-01-06T03:51:37.206Z,9.82
2024-01-06T03:54:25.109Z,12.43
2024-01-06T03:57:12.764Z,12.68
2024-01-06T04:00:00.208Z,14.60
2024-01-06T04:02:49.025Z,11.35
2024-01-06T04:05:36.588Z,11.30
2024-01-06T04:08:23.959Z,11.63
2024-01-06T04:11:11.583Z,12.57
2024-01-06T04:13:59.603Z,10.95
2024-01-06T04:16:47.329Z,12.43
2024-01-06T04:19:36.171Z,10.15
2024-01-06T04:22:24.254Z,13.07
2024-01-06T04:25:11.807Z,10.80
2024-01-06T04:27:59.300Z,9.38
2024-01-06T04:30:46.902Z,11.65
2024-01-06T04:33:35.153Z,11.18
2024-01-06T04:36:24.515Z,11.30
2024-01-06T04:39:14.004Z,11.90
2024-01-06T04:42:01.722Z,9.48
2024-01-06T04:44:49.102Z,9.05
2024-01-06T04:47:36.482Z,13.18
2024-01-06T04:50:23.907Z,9.50
2024-01-06T04:53:12.701Z,9.85
2024-01-06T04:56:00.585Z,13.20
2024-01-06T04:58:48.359Z,10.88
2024-01-06T05:01:36.141Z,11.05
2024-01-06T05:04:23.841Z,11.13
2024-01-06T05:07:11.763Z,8.98
2024-01-06T05:10:00.682Z,11.93
2024-01-06T05:12:48.243Z,10.80
2024-01-06T05:15:36.152Z,11.77
2024-01-06T05:18:24.036Z,8.23
2024-01-06T05:21:11.792Z,15.18
2024-01-06T05:23:59.403Z,9.80
2024-01-06T05:26:48.314Z,12.02
2024-01-06T05:29:36.096Z,12.10
2024-01-06T05:32:23.689Z,9.88
2024-01-06T05:35:11.609Z,9.45
2024-01-06T05:37:59.433Z,9.48
2024-01-06T05:40:47.076Z,9.70
2024-01-06T05:43:35.997Z,10.90
2024-01-06T05:46:24.200Z,11.00
2024-01-06T05:49:12.899Z,10.32
2024-01-06T05:52:00.450Z,10.02
2024-01-06T05:54:48.713Z,13.38
2024-01-06T05:57:36.631Z,9.45
2024-01-06T06:00:25.727Z,10.73
2024-01-06T06:03:13.454Z,9.95
2024-01-06T06:06:01.320Z,8.85
2024-01-06T06:08:49.719Z,8.23
2024-01-06T06:11:37.892Z,8.60
2024-01-06T06:14:29.131Z,8.20
2024-01-06T06:17:19.603Z,10.90
2024-01-06T06:20:08.747Z,8.23
2024-01-06T06:22:56.359Z,11.43
2024-01-06T06:25:44.005Z,7.20
2024-01-06T06:28:31.378Z,10.77
2024-01-06T06:31:18.906Z,7.88
2024-01-06T06:34:09.256Z,8.48
2024-01-06T06:36:57.064Z,8.80
2024-01-06T06:39:46.079Z,10.23
2024-01-06T06:42:33.841Z,9.90
2024-01-06T06:45:23.836Z,7.55
2024-01-06T06:48:12.854Z,7.22
2024-01-06T06:51:02.095Z,7.05
2024-01-06T06:53:51.276Z,6.40
2024-01-06T06:56:38.928Z,8.60
2024-01-06T06:59:26.446Z,7.22
2024-01-06T07:02:14.501Z,7.70
2024-01-06T07:05:08.068Z,6.32
2024-01-06T07:07:57.375Z,5.18
2024-01-06T07:10:47.463Z,6.20
2024-01-06T07:13:37.027Z,8.82
2024-01-06T07:16:24.971Z,7.13
2024-01-06T07:19:13.105Z,6.25
2024-01-06T07:22:02.571Z,8.35
2024-01-06T07:24:54.634Z,5.15
2024-01-06T07:27:42.278Z,6.85
2024-01-06T07:30:30.718Z,8.43
2024-01-06T07:33:18.318Z,7.40
2024-01-06T07:36:07.773Z,5.90
2024-01-06T07:38:56.328Z,6.53
2024-01-06T07:41:46.130Z,5.47
2024-01-06T07:44:35.292Z,5.38
2024-01-06T07:47:22.952Z,5.93
2024-01-06T07:50:14.332Z,6.05
2024-01-06T07:53:02.849Z,4.85
2024-01-06T07:55:50.693Z,8.88
2024-01-06T07:58:39.513Z,8.43
2024-01-06T08:01:27.055Z,5.90
2024-01-06T08:04:14.770Z,7.70
2024-01-06T08:07:03.249Z,6.30
2024-01-06T08:09:51.164Z,5.05
2024-01-06T08:12:38.709Z,6.68
2024-01-06T08:15:27.688Z,5.85
2024-01-06T08:18:15.796Z,7.53
2024-01-06T08:21:03.783Z,6.40
2024-01-06T08:23:51.310Z,7.75
2024-01-06T08:26:38.895Z,13.77
2024-01-06T08:29:26.550Z,5.55
2024-01-06T08:32:16.226Z,13.60
2024-01-06T08:35:04.783Z,9.50
2024-01-06T08:37:52.332Z,8.70
2024-01-06T08:40:40.177Z,9.80
2024-01-06T08:43:27.862Z,7.63
2024-01-06T08:46:16.527Z,18.73
2024-01-06T08:49:05.626Z,12.55
2024-01-06T08:51:53.227Z,9.00
2024-01-06T08:54:40.983Z,7.07
2024-01-06T08:57:28.520Z,9.90
2024-01-06T09:00:18.719Z,10.23
2024-01-06T09:03:08.088Z,7.18
2024-01-06T09:05:58.897Z,9.82
2024-01-06T09:08:46.598Z,10.13
2024-01-06T09:11:34.208Z,12.10
2024-01-06T09:14:21.793Z,10.75
2024-01-06T09:17:09.548Z,7.95
2024-01-06T09:19:57.017Z,14.48
2024-01-06T09:22:45.703Z,8.88
2024-01-06T09:25:33.213Z,12.20
2024-01-06T09:28:22.525Z,12.55
2024-01-06T09:31:11.093Z,11.20
2024-01-06T09:34:04.090Z,10.82
2024-01-06T09:39:41.111Z,9.27
2024-01-06T09:42:29.072Z,13.50
2024-01-06T09:45:17.085Z,13.27
2024-01-06T09:48:14.261Z,10.55
2024-01-06T09:51:06.008Z,14.52
2024-01-06T09:54:01.325Z,10.75
2024-01-06T09:56:52.255Z,35.40
2024-01-06T09:59:43.577Z,23.58
2024-01-06T10:02:32.806Z,15.38
2024-01-06T10:05:21.862Z,15.27
2024-01-06T10:08:09.507Z,15.48
2024-01-06T10:10:56.836Z,14.88
2024-01-06T10:13:45.540Z,14.98
2024-01-06T10:16:33.420Z,11.35
2024-01-06T10:19:22.230Z,15.05
2024-01-06T10:22:10.125Z,8.93
2024-01-06T10:25:00.040Z,12.38
2024-01-06T10:27:47.419Z,12.63
2024-01-06T10:30:39.696Z,12.02
2024-01-06T10:33:28.944Z,10.10
2024-01-06T10:36:23.289Z,11.82
2024-01-06T10:39:11.153Z,13.90
2024-01-06T10:42:00.737Z,12.07
2024-01-06T10:44:50.400Z,10.90
2024-01-06T10:47:41.374Z,12.32
2024-01-06T10:50:31.248Z,10.85
2024-01-06T10:53:23.572Z,9.52
2024-01-06T10:56:12.612Z,8.07
2024-01-06T10:59:01.960Z,11.00
2024-01-06T11:01:51.295Z,13.15
2024-01-06T11:04:41.688Z,11.82
2024-01-06T11:07:30.534Z,13.32
2024-01-06T11:10:20.468Z,11.13
2024-01-06T11:13:13.470Z,10.95
2024-01-06T11:16:04.350Z,11.30
2024-01-06T11:18:52.190Z,11.00
2024-01-06T11:21:41.684Z,12.52
2024-01-06T11:24:40.112Z,11.70
2024-01-06T11:27:30.814Z,10.88
2024-01-06T11:30:24.490Z,8.30
2024-01-06T11:33:12.722Z,12.45
2024-01-06T11:36:03.956Z,9.27
2024-01-06T11:38:54.110Z,13.18
2024-01-06T11:41:51.767Z,10.80
2024-01-06T11:44:40.533Z,8.57
2024-01-06T11:47:32.104Z,10.63
2024-01-06T11:50:20.184Z,10.27
2024-01-06T11:53:11.157Z,11.80
2024-01-06T11:56:03.241Z,9.15
2024-01-06T11:58:51.095Z,9.90
2024-01-06T12:01:39.864Z,11.15
2024-01-06T12:04:28.766Z,11.48
2024-01-06T12:07:17.862Z,10.75
2024-01-06T12:10:08.884Z,8.55
2024-01-06T12:13:04.656Z,11.82
2024-01-06T12:15:52.439Z,15.02
2024-01-06T12:18:43.987Z,14.18
2024-01-06T12:21:31.663Z,8.90
2024-01-06T12:24:21.619Z,11.73
2024-01-06T12:27:12.033Z,10.63
2024-01-06T12:30:01.590Z,8.35
2024-01-06T12:32:51.546Z,7.18
2024-01-06T12:35:39.996Z,10.02
2024-01-06T12:38:28.829Z,10.05
2024-01-06T12:41:17.304Z,11.38
2024-01-06T12:44:05.277Z,11.27
2024-01-06T12:46:56.814Z,7.22
2024-01-06T12:49:45.054Z,9.93
2024-01-06T12:52:34.912Z,11.27
2024-01-06T12:55:22.591Z,7.70
2024-01-06T12:58:10.759Z,11.90
2024-01-06T13:00:58.383Z,9.75
2024-01-06T13:03:47.840Z,9.13
2024-01-06T13:06:35.801Z,10.15
2024-01-06T13:09:27.268Z,7.63
2024-01-06T13:12:16.592Z,11.20
2024-01-06T13:15:04.593Z,9.07
2024-01-06T13:17:53.990Z,8.40
2024-01-06T13:20:44.249Z,8.30
2024-01-06T13:23:32.092Z,9.25
2024-01-06T13:26:19.709Z,9.63
2024-01-06T13:29:07.300Z,10.55
2024-01-06T13:31:54.875Z,10.70
2024-01-06T13:34:43.219Z,9.80
2024-01-06T13:37:33.229Z,8.13
2024-01-06T13:40:21.711Z,9.07
2024-01-06T13:43:16.753Z,10.07
2024-01-06T13:46:05.118Z,7.15
2024-01-06T13:48:53.097Z,8.15
2024-01-06T13:51:41.383Z,6.88
2024-01-06T13:54:31.398Z,11.75
2024-01-06T13:57:18.962Z,16.73
2024-01-06T14:00:07.974Z,11.65
2024-01-06T14:02:56.100Z,10.45
2024-01-06T14:05:43.982Z,7.90
2024-01-06T14:08:31.903Z,8.55
2024-01-06T14:11:20.838Z,6.70
2024-01-06T14:14:08.328Z,9.25
2024-01-06T14:16:56.087Z,7.88
2024-01-06T14:19:47.863Z,8.95
2024-01-06T14:22:36.464Z,8.13
2024-01-06T14:25:24.464Z,12.13
2024-01-06T14:28:13.672Z,15.93
2024-01-06T14:31:01.331Z,10.00
2024-01-06T14:33:49.709Z,7.68
2024-01-06T14:36:37.849Z,9.48
2024-01-06T14:39:26.021Z,9.27
2024-01-06T14:42:13.848Z,7.70
2024-01-06T14:45:03.248Z,7.72
2024-01-06T14:47:52.289Z,8.23
2024-01-06T14:50:40.454Z,10.52
2024-01-06T14:53:27.835Z,12.13
2024-01-06T14:56:17.360Z,19.95
2024-01-06T14:59:05.108Z,19.63
2024-01-06T15:01:54.554Z,15.43
2024-01-06T15:04:42.484Z,13.18
2024-01-06T15:07:32.529Z,12.32
2024-01-06T15:10:20.289Z,11.23
2024-01-06T15:13:09.448Z,11.43
2024-01-06T15:15:57.615Z,13.88
2024-01-06T15:18:48.335Z,10.18
2024-01-06T15:21:37.921Z,13.73
2024-01-06T15:24:25.873Z,14.43
2024-01-06T15:27:13.496Z,17.90
2024-01-06T15:30:02.733Z,11.18
2024-01-06T15:32:50.727Z,10.05
2024-01-06T15:35:39.843Z,10.45
2024-01-06T15:38:28.439Z,11.63
2024-01-06T15:41:16.086Z,10.65
2024-01-06T15:44:03.622Z,10.10
2024-01-06T15:46:51.558Z,9.40
2024-01-06T15:49:39.401Z,12.93
2024-01-06T15:52:28.525Z,17.92
2024-01-06T15:55:16.762Z,20.08
2024-01-06T15:58:07.972Z,16.27
2024-01-06T16:00:55.947Z,18.25
2024-01-06T16:03:44.400Z,13.82
2024-01-06T16:06:36.818Z,9.65
2024-01-06T16:09:27.161Z,12.10
2024-01-06T16:12:15.850Z,11.82
2024-01-06T16:15:03.562Z,14.52
2024-01-06T16:17:51.671Z,12.43
2024-01-06T16:20:39.577Z,17.95
2024-01-06T16:23:29.831Z,22.88
2024-01-06T16:26:19.261Z,14.30
2024-01-06T16:29:07.507Z,12.60
2024-01-06T16:31:55.395Z,10.27
2024-01-06T16:34:43.475Z,8.25
2024-01-06T16:37:31.402Z,9.45
2024-01-06T16:40:19.843Z,11.25
2024-01-06T16:43:09.098Z,10.63
2024-01-06T16:45:56.877Z,19.02
2024-01-06T16:48:44.828Z,16.40
2024-01-06T16:51:32.670Z,17.02
2024-01-06T16:54:20.614Z,17.08
2024-01-06T16:57:08.812Z,16.33
2024-01-06T16:59:59.287Z,19.35
2024-01-06T17:02:46.833Z,22.02
2024-01-06T17:05:34.905Z,14.90
2024-01-06T17:08:22.902Z,16.40
2024-01-06T17:11:11.721Z,12.00
2024-01-06T17:13:59.497Z,17.13
2024-01-06T17:16:48.667Z,16.50
2024-01-06T17:19:36.566Z,13.88
2024-01-06T17:22:24.183Z,12.57
2024-01-06T17:25:16.053Z,12.63
2024-01-06T17:28:04.671Z,14.63
2024-01-06T17:30:52.753Z,14.27
2024-01-06T17:33:42.606Z,17.33
2024-01-06T17:36:30.601Z,13.10
2024-01-06T17:39:21.062Z,12.55
2024-01-06T17:42:08.791Z,11.85
2024-01-06T17:44:56.525Z,13.60
2024-01-06T17:47:45.635Z,11.98
2024-01-06T17:50:37.292Z,14.05
2024-01-06T17:53:25.354Z,13.38
2024-01-06T17:56:13.459Z,9.18
2024-01-06T17:59:02.649Z,14.98
2024-01-06T18:01:50.543Z,12.25
2024-01-06T18:04:41.768Z,13.00
2024-01-06T18:07:31.964Z,11.55
2024-01-06T18:10:20.237Z,13.82
2024-01-06T18:13:08.114Z,18.02
2024-01-06T18:15:55.923Z,17.70
2024-01-06T18:18:43.903Z,14.48
2024-01-06T18:21:31.859Z,12.90
2024-01-06T18:24:20.678Z,13.55
2024-01-06T18:27:09.073Z,10.57
2024-01-06T18:29:57.295Z,15.38
2024-01-06T18:32:45.218Z,14.93
2024-01-06T18:35:32.756Z,13.68
2024-01-06T18:38:21.298Z,14.32
2024-01-06T18:41:10.514Z,13.23
2024-01-06T18:43:58.374Z,11.63
2024-01-06T18:46:46.243Z,12.57
2024-01-06T18:49:34.036Z,13.93
2024-01-06T18:52:21.765Z,11.95
2024-01-06T18:55:10.546Z,11.52
2024-01-06T18:58:00.748Z,19.42
2024-01-06T19:00:48.475Z,12.35
2024-01-06T19:03:38.987Z,12.35
2024-01-06T19:06:26.954Z,12.80
2024-01-06T19:09:15.067Z,15.85
2024-01-06T19:12:03.575Z,14.63
2024-01-06T19:14:54.705Z,14.25
2024-01-06T19:17:46.619Z,15.85
2024-01-06T19:20:42.875Z,12.70
2024-01-06T19:23:30.431Z,11.35
2024-01-06T19:26:17.986Z,13.43
2024-01-06T19:29:05.531Z,12.75
2024-01-06T19:31:54.755Z,13.93
2024-01-06T19:34:43.030Z,12.63
2024-01-06T19:37:31.124Z,12.93
2024-01-06T19:40:19.762Z,11.93
2024-01-06T19:43:07.988Z,11.27
2024-01-06T19:45:56.065Z,11.65
2024-01-06T19:48:45.242Z,11.70
2024-01-06T19:51:33.087Z,11.88
2024-01-06T19:54:21.163Z,24.83
2024-01-06T19:57:11.402Z,21.77
2024-01-06T20:00:01.742Z,17.27
2024-01-06T20:02:49.292Z,15.32
2024-01-06T20:05:38.421Z,15.70
2024-01-06T20:08:26.332Z,15.10
2024-01-06T20:11:14.039Z,11.73
2024-01-06T20:14:01.565Z,11.57
2024-01-06T20:16:49.330Z,14.20
2024-01-06T20:19:37.545Z,13.77
2024-01-06T20:22:28.413Z,14.55
2024-01-06T20:25:16.365Z,12.63
2024-01-06T20:28:04.184Z,20.25
2024-01-06T20:30:52.241Z,15.10
2024-01-06T20:33:45.422Z,16.20
2024-01-06T20:39:22.044Z,15.95
2024-01-06T20:42:09.829Z,13.20
2024-01-06T20:44:57.348Z,12.05
2024-01-06T20:47:45.234Z,15.27
2024-01-06T20:50:32.856Z,12.55
2024-01-06T20:53:23.521Z,14.20
2024-01-06T20:56:14.389Z,10.90
2024-01-06T20:59:02.068Z,13.80
2024-01-06T21:01:49.798Z,12.65
2024-01-06T21:04:37.477Z,12.32
2024-01-06T21:07:25.150Z,13.98
2024-01-06T21:10:13.172Z,12.73
2024-01-06T21:13:02.108Z,11.93
2024-01-06T21:15:49.626Z,12.40
2024-01-06T21:18:39.935Z,13.20
2024-01-06T21:21:27.672Z,12.93
2024-01-06T21:24:15.790Z,13.07
2024-01-06T21:27:03.581Z,12.65
2024-01-06T21:29:52.748Z,18.10
2024-01-06T21:32:40.262Z,15.82
2024-01-06T21:35:27.967Z,12.07
2024-01-06T21:38:15.890Z,9.65
2024-01-06T21:41:04.204Z,11.32
2024-01-06T21:43:53.035Z,13.90
2024-01-06T21:46:42.696Z,15.82
2024-01-06T21:49:30.223Z,14.02
2024-01-06T21:52:18.419Z,11.85
2024-01-06T21:55:07.814Z,12.00
2024-01-06T21:57:57.698Z,12.38
2024-01-06T22:00:45.356Z,11.35
2024-01-06T22:03:34.640Z,11.32
2024-01-06T22:06:22.642Z,12.65
2024-01-06T22:09:12.715Z,12.52
2024-01-06T22:12:01.976Z,12.55
2024-01-06T22:14:49.990Z,13.82
2024-01-06T22:17:37.721Z,14.40
2024-01-06T22:20:27.046Z,11.65
2024-01-06T22:23:14.884Z,12.43
2024-01-06T22:26:02.353Z,12.65
2024-01-06T22:28:49.746Z,12.40
2024-01-06T22:31:37.889Z,14.68
2024-01-06T22:34:25.047Z,13.30
2024-01-06T22:37:17.516Z,11.63
2024-01-06T22:40:06.930Z,10.87
2024-01-06T22:42:54.745Z,12.30
2024-01-06T22:45:45.708Z,14.07
2024-01-06T22:48:34.344Z,12.07
2024-01-06T22:51:22.414Z,13.82
2024-01-06T22:54:12.141Z,11.85
2024-01-06T22:57:00.343Z,11.23
2024-01-06T23:00:00.417Z,10.18
2024-01-06T23:02:48.112Z,12.57
2024-01-06T23:05:36.122Z,14.32
2024-01-06T23:08:24.118Z,10.45
2024-01-06T23:11:15.116Z,12.30
2024-01-06T23:14:05.184Z,9.60
2024-01-06T23:16:53.117Z,11.50
2024-01-06T23:19:43.596Z,11.80
2024-01-06T23:22:33.901Z,12.82
2024-01-06T23:25:22.065Z,14.45
2024-01-06T23:28:12.443Z,14.13
2024-01-06T23:31:03.369Z,11.70
2024-01-06T23:33:51.366Z,12.32
2024-01-06T23:36:39.462Z,11.65
2024-01-06T23:39:27.227Z,13.20
2024-01-06T23:42:15.783Z,11.52
2024-01-06T23:45:05.915Z,11.15
2024-01-06T23:47:54.485Z,9.85
2024-01-06T23:50:43.349Z,10.93
2024-01-06T23:53:31.217Z,10.25
2024-01-06T23:56:19.294Z,11.07
2024-01-06T23:59:10.092Z,11.30
